Time;durP1;ratioP1;P1;durP2;ratioP2;P2;SDS_P1;SDS_P2;PMS_P1;PMS_P2;Temp;Humidity;BMP_temperature;BMP_pressure;BME280_temperature;BME280_humidity;BME280_pressure;Samples;Min_cycle;Max_cycle;Signal;HPM_P1;HPM_P2
2023/09/23 00:00:36;;;;;;;6.68;5.13;;;14.30;99.90;;;;;;5050836;28;20248;-65
2023/09/23 00:03:04;;;;;;;5.70;5.20;;;14.30;99.90;;;;;;5011003;28;20244;-66
2023/09/23 00:05:33;;;;;;;5.30;4.80;;;14.20;99.90;;;;;;5049779;28;20427;-65
2023/09/23 00:08:00;;;;;;;6.55;5.45;;;14.20;99.90;;;;;;5060183;28;20196;-65
2023/09/23 00:10:27;;;;;;;5.93;4.90;;;13.70;99.90;;;;;;5049176;28;20227;-65
2023/09/23 00:12:55;;;;;;;5.85;5.25;;;14.10;99.90;;;;;;5041768;28;20581;-65
2023/09/23 00:15:23;;;;;;;6.78;5.65;;;14.10;99.90;;;;;;5055546;28;20221;-65
2023/09/23 00:17:53;;;;;;;5.70;5.20;;;14.10;99.90;;;;;;5029451;28;20215;-65
2023/09/23 00:20:21;;;;;;;5.43;4.90;;;13.90;99.90;;;;;;5042784;28;20228;-65
2023/09/23 00:22:54;;;;;;;5.43;4.93;;;14.00;99.90;;;;;;5051595;28;20196;-65
2023/09/23 00:25:23;;;;;;;7.55;5.40;;;14.10;99.90;;;;;;5056332;28;20208;-65
2023/09/23 00:27:53;;;;;;;8.68;5.70;;;14.10;99.90;;;;;;5040302;28;20207;-66
2023/09/23 00:30:22;;;;;;;6.80;5.53;;;14.10;99.90;;;;;;5057179;28;20232;-65
2023/09/23 00:32:50;;;;;;;8.13;5.35;;;14.10;99.90;;;;;;5025734;28;20246;-65
2023/09/23 00:35:18;;;;;;;6.78;5.93;;;14.20;99.90;;;;;;5049119;28;20232;-65
2023/09/23 00:37:48;;;;;;;6.97;5.93;;;14.10;99.90;;;;;;5054005;28;20204;-65
2023/09/23 00:40:17;;;;;;;6.32;5.72;;;14.10;99.90;;;;;;5060467;28;20482;-65
2023/09/23 00:42:47;;;;;;;5.65;5.15;;;14.10;99.90;;;;;;5050332;28;20208;-65
2023/09/23 00:45:17;;;;;;;7.93;6.47;;;14.10;99.90;;;;;;5038589;28;20695;-65
2023/09/23 00:47:44;;;;;;;6.70;6.00;;;14.10;99.90;;;;;;5028793;28;20208;-65
2023/09/23 00:50:18;;;;;;;7.57;5.57;;;14.10;99.90;;;;;;5044970;28;20203;-65
2023/09/23 00:52:46;;;;;;;6.50;5.18;;;14.10;99.90;;;;;;5049678;28;20208;-65
2023/09/23 00:55:16;;;;;;;6.65;5.07;;;14.10;99.90;;;;;;5056973;28;20199;-66
2023/09/23 00:57:47;;;;;;;6.22;5.65;;;14.00;99.90;;;;;;5053283;28;20204;-65
2023/09/23 01:00:17;;;;;;;7.95;5.75;;;14.00;99.90;;;;;;5045308;28;20795;-65
2023/09/23 01:02:46;;;;;;;6.93;5.60;;;14.10;99.90;;;;;;5061129;28;20192;-65
2023/09/23 01:05:18;;;;;;;8.02;6.13;;;13.70;99.90;;;;;;5015756;28;20776;-65
2023/09/23 01:07:48;;;;;;;7.30;5.63;;;12.80;99.90;;;;;;5046373;28;20205;-65
2023/09/23 01:10:16;;;;;;;9.25;6.43;;;14.10;99.90;;;;;;5052996;28;20207;-65
2023/09/23 01:12:45;;;;;;;7.93;5.97;;;14.10;99.90;;;;;;5054211;28;20323;-66
2023/09/23 01:15:12;;;;;;;6.18;5.57;;;14.10;99.90;;;;;;5045165;28;20257;-65
2023/09/23 01:17:39;;;;;;;7.97;5.63;;;14.10;99.90;;;;;;5058245;28;20273;-65
2023/09/23 01:20:10;;;;;;;10.25;6.05;;;14.10;99.90;;;;;;5027769;28;20208;-65
2023/09/23 01:22:39;;;;;;;9.20;5.57;;;14.20;99.90;;;;;;5046750;28;20604;-66
2023/09/23 01:25:07;;;;;;;7.38;6.13;;;14.10;99.90;;;;;;5047601;28;20207;-65
2023/09/23 01:27:35;;;;;;;5.50;4.97;;;14.00;99.90;;;;;;5055638;28;20865;-65
2023/09/23 01:30:03;;;;;;;8.00;6.45;;;14.00;99.90;;;;;;5044711;28;20207;-65
2023/09/23 01:32:39;;;;;;;7.25;6.25;;;14.00;99.90;;;;;;5032963;28;20359;-65
2023/09/23 01:35:08;;;;;;;6.13;5.53;;;14.00;99.90;;;;;;5046333;28;20269;-65
2023/09/23 01:37:35;;;;;;;6.80;5.40;;;14.00;99.90;;;;;;5026454;28;21000;-66
2023/09/23 01:40:05;;;;;;;6.78;5.28;;;14.00;99.90;;;;;;5051376;28;20215;-65
2023/09/23 01:42:32;;;;;;;6.25;5.43;;;14.00;99.90;;;;;;5052536;28;20402;-65
2023/09/23 01:44:59;;;;;;;6.85;5.97;;;14.00;99.90;;;;;;5034021;28;20810;-65
2023/09/23 01:47:26;;;;;;;7.30;5.85;;;14.00;99.90;;;;;;5047981;28;20220;-66
2023/09/23 01:49:52;;;;;;;7.93;5.10;;;14.10;99.90;;;;;;5054561;28;20262;-65
2023/09/23 01:52:19;;;;;;;6.05;5.10;;;14.10;99.90;;;;;;5019497;28;20212;-65
2023/09/23 01:54:47;;;;;;;6.35;5.75;;;14.00;99.90;;;;;;5042993;28;20406;-65
2023/09/23 01:57:17;;;;;;;6.57;5.80;;;14.00;99.90;;;;;;5060883;28;20573;-65
2023/09/23 01:59:44;;;;;;;9.93;5.95;;;13.90;99.90;;;;;;5044048;28;20228;-66
2023/09/23 02:02:10;;;;;;;8.20;6.00;;;14.00;99.90;;;;;;5042604;28;20197;-65
2023/09/23 02:04:39;;;;;;;8.23;5.25;;;13.90;99.90;;;;;;5059046;28;20192;-65
2023/09/23 02:07:07;;;;;;;8.15;5.80;;;13.80;99.90;;;;;;5026568;28;20208;-65
2023/09/23 02:09:37;;;;;;;7.82;5.70;;;13.90;99.90;;;;;;5040985;28;20740;-65
2023/09/23 02:12:04;;;;;;;5.70;5.10;;;13.90;99.90;;;;;;5056207;28;20502;-65
2023/09/23 02:14:32;;;;;;;7.93;5.65;;;13.80;99.90;;;;;;5062564;28;20195;-65
2023/09/23 02:16:59;;;;;;;7.38;5.93;;;13.80;99.90;;;;;;5039643;28;20455;-65
2023/09/23 02:19:27;;;;;;;6.60;5.50;;;13.70;99.90;;;;;;5061840;28;20201;-65
2023/09/23 02:21:54;;;;;;;6.95;5.88;;;13.70;99.90;;;;;;5026166;28;21025;-65
2023/09/23 02:24:21;;;;;;;7.18;5.28;;;13.80;99.90;;;;;;5046392;28;20193;-65
2023/09/23 02:26:48;;;;;;;6.05;5.30;;;13.70;99.90;;;;;;5060151;28;20203;-65
2023/09/23 02:29:15;;;;;;;6.00;5.38;;;13.60;99.90;;;;;;5062461;28;20597;-65
2023/09/23 02:31:46;;;;;;;6.82;5.18;;;13.60;99.90;;;;;;5029628;28;20239;-65
2023/09/23 02:34:16;;;;;;;7.30;6.30;;;13.70;99.90;;;;;;5053529;28;20212;-65
2023/09/23 02:36:45;;;;;;;7.38;5.68;;;13.50;99.90;;;;;;5026673;28;20283;-66
2023/09/23 02:39:15;;;;;;;5.95;5.35;;;13.60;99.90;;;;;;5055269;28;20643;-65
2023/09/23 02:41:45;;;;;;;7.00;5.88;;;13.60;99.90;;;;;;5043948;28;20200;-66
2023/09/23 02:44:12;;;;;;;6.30;5.55;;;13.70;99.90;;;;;;5062563;28;20204;-65
2023/09/23 02:46:40;;;;;;;8.98;6.25;;;13.70;99.90;;;;;;5048392;28;20203;-66
2023/09/23 02:49:09;;;;;;;8.55;5.70;;;13.70;99.90;;;;;;5043475;28;20204;-65
2023/09/23 02:51:36;;;;;;;10.25;6.22;;;13.60;99.90;;;;;;5024161;28;20228;-66
2023/09/23 02:54:04;;;;;;;6.65;5.53;;;13.60;99.90;;;;;;5045717;28;20459;-65
2023/09/23 02:56:31;;;;;;;9.35;6.25;;;13.60;99.90;;;;;;5052076;28;20265;-65
2023/09/23 02:58:59;;;;;;;7.00;5.70;;;13.60;99.90;;;;;;5055619;28;20196;-66
2023/09/23 03:01:27;;;;;;;6.88;5.55;;;13.60;99.90;;;;;;5052426;28;20224;-65
2023/09/23 03:03:55;;;;;;;8.05;6.13;;;13.60;99.90;;;;;;5037072;28;20208;-66
2023/09/23 03:06:23;;;;;;;7.20;6.50;;;14.60;99.90;;;;;;5059501;28;20193;-65
2023/09/23 03:08:54;;;;;;;8.05;6.13;;;13.50;99.90;;;;;;5023882;28;20334;-65
2023/09/23 03:11:21;;;;;;;8.23;6.15;;;13.60;99.90;;;;;;5051396;28;20578;-65
2023/09/23 03:13:49;;;;;;;8.02;5.80;;;13.60;99.90;;;;;;5053801;28;20210;-65
2023/09/23 03:16:28;;;;;;;6.47;5.28;;;13.50;99.90;;;;;;5060271;28;20200;-65
2023/09/23 03:19:09;;;;;;;7.38;5.57;;;13.70;99.90;;;;;;5021215;28;23619;-65
2023/09/23 03:21:41;;;;;;;6.82;5.28;;;13.50;99.90;;;;;;5056774;28;20188;-65
2023/09/23 03:24:10;;;;;;;7.93;5.40;;;13.50;99.90;;;;;;5032239;28;20204;-65
2023/09/23 03:26:37;;;;;;;6.68;5.53;;;13.70;99.90;;;;;;5054172;28;20196;-65
2023/09/23 03:29:06;;;;;;;5.22;4.60;;;13.60;99.90;;;;;;5054481;28;22147;-66
2023/09/23 03:31:33;;;;;;;6.45;5.28;;;13.60;99.90;;;;;;5056077;28;20228;-65
2023/09/23 03:34:03;;;;;;;6.15;5.07;;;13.60;99.90;;;;;;5037679;28;20300;-65
2023/09/23 03:36:31;;;;;;;7.22;4.95;;;13.70;99.90;;;;;;5044598;28;20237;-65
2023/09/23 03:39:00;;;;;;;5.68;4.47;;;13.60;99.90;;;;;;5029137;28;20346;-65
2023/09/23 03:41:28;;;;;;;5.40;4.50;;;13.60;99.90;;;;;;5060400;28;20218;-66
2023/09/23 03:43:54;;;;;;;5.10;4.57;;;13.60;99.90;;;;;;5051062;28;20468;-65
2023/09/23 03:46:21;;;;;;;5.88;4.05;;;13.60;99.90;;;;;;5061110;28;20211;-65
2023/09/23 03:48:48;;;;;;;6.13;4.43;;;13.80;99.90;;;;;;5031953;28;20215;-65
2023/09/23 03:51:15;;;;;;;7.53;4.43;;;13.60;99.90;;;;;;5044199;28;20679;-65
2023/09/23 03:53:44;;;;;;;6.50;4.70;;;13.60;99.90;;;;;;5051721;28;20199;-65
2023/09/23 03:56:12;;;;;;;5.35;4.00;;;13.50;99.90;;;;;;5027648;28;20560;-65
2023/09/23 03:58:39;;;;;;;7.70;4.53;;;14.00;99.90;;;;;;5052610;28;20196;-65
2023/09/23 04:01:13;;;;;;;6.00;4.57;;;13.50;99.90;;;;;;5057645;28;20595;-65
2023/09/23 04:03:41;;;;;;;5.05;4.55;;;13.50;99.90;;;;;;5036128;28;20203;-65
2023/09/23 04:06:08;;;;;;;5.03;4.53;;;13.50;99.90;;;;;;5047936;28;20267;-65
2023/09/23 04:08:35;;;;;;;7.28;4.78;;;13.50;99.90;;;;;;5062767;28;20200;-65
2023/09/23 04:11:03;;;;;;;6.00;4.72;;;13.50;99.90;;;;;;5032335;28;20407;-65
2023/09/23 04:13:32;;;;;;;5.70;4.22;;;13.40;99.90;;;;;;5059855;28;20223;-65
2023/09/23 04:16:01;;;;;;;7.25;4.05;;;13.40;99.90;;;;;;5050073;28;20412;-65
2023/09/23 04:18:28;;;;;;;4.85;4.45;;;13.50;99.90;;;;;;5049381;28;20208;-65
2023/09/23 04:20:55;;;;;;;5.20;4.70;;;13.40;99.90;;;;;;5045320;28;20579;-65
2023/09/23 04:23:22;;;;;;;6.65;4.90;;;13.50;99.90;;;;;;5060847;28;20212;-65
2023/09/23 04:25:50;;;;;;;5.18;4.28;;;13.50;99.90;;;;;;5025699;28;20602;-65
2023/09/23 04:28:16;;;;;;;5.10;4.43;;;13.40;99.90;;;;;;5062610;28;20689;-65
2023/09/23 04:30:45;;;;;;;5.60;4.80;;;13.40;99.90;;;;;;5048569;28;20783;-65
2023/09/23 04:33:12;;;;;;;5.68;4.25;;;13.40;99.90;;;;;;5051152;28;20223;-65
2023/09/23 04:35:39;;;;;;;4.80;4.30;;;13.50;99.90;;;;;;5046047;28;20222;-65
2023/09/23 04:38:06;;;;;;;5.05;4.40;;;13.30;99.90;;;;;;5059807;28;20193;-65
2023/09/23 04:40:33;;;;;;;5.05;4.40;;;13.40;99.90;;;;;;5055625;28;20430;-65
2023/09/23 04:43:00;;;;;;;6.25;4.10;;;13.30;99.90;;;;;;5020273;28;20575;-65
2023/09/23 04:45:27;;;;;;;5.07;3.95;;;13.40;99.90;;;;;;5052738;28;21076;-65
2023/09/23 04:47:55;;;;;;;4.57;4.00;;;13.30;99.90;;;;;;5041956;28;20972;-65
2023/09/23 04:50:24;;;;;;;4.03;3.55;;;13.20;99.90;;;;;;5049737;28;20344;-65
2023/09/23 04:52:51;;;;;;;5.45;4.10;;;13.30;99.90;;;;;;5035158;28;20883;-65
2023/09/23 04:55:19;;;;;;;3.80;3.50;;;13.20;99.90;;;;;;5056051;28;20195;-65
2023/09/23 04:57:45;;;;;;;4.20;3.60;;;13.00;99.90;;;;;;5020423;28;20209;-65
2023/09/23 05:00:19;;;;;;;3.85;3.45;;;13.20;99.90;;;;;;5053817;28;20229;-65
2023/09/23 05:02:49;;;;;;;5.53;3.35;;;13.20;99.90;;;;;;5043449;28;20306;-65
2023/09/23 05:05:18;;;;;;;4.45;3.15;;;13.20;99.90;;;;;;5043624;28;20204;-66
2023/09/23 05:07:45;;;;;;;3.13;2.83;;;13.20;99.90;;;;;;5034440;28;20270;-65
2023/09/23 05:10:12;;;;;;;3.42;3.13;;;13.20;99.90;;;;;;5053736;28;20196;-65
2023/09/23 05:12:40;;;;;;;3.03;2.80;;;13.20;99.90;;;;;;5026253;28;20220;-66
2023/09/23 05:15:09;;;;;;;2.80;2.60;;;13.30;99.90;;;;;;5048710;28;20238;-65
2023/09/23 05:17:37;;;;;;;3.20;2.78;;;13.40;99.90;;;;;;5043089;28;20207;-65
2023/09/23 05:20:11;;;;;;;3.03;2.80;;;13.20;99.90;;;;;;5046799;28;20319;-66
2023/09/23 05:22:40;;;;;;;2.75;2.50;;;13.20;99.90;;;;;;5044095;28;20199;-66
2023/09/23 05:25:08;;;;;;;5.03;2.38;;;13.20;99.90;;;;;;5047976;28;20199;-65
2023/09/23 05:27:34;;;;;;;2.92;2.47;;;13.20;99.90;;;;;;5033543;28;20201;-65
2023/09/23 05:30:01;;;;;;;3.40;2.42;;;13.20;99.90;;;;;;5040368;28;20212;-65
2023/09/23 05:32:28;;;;;;;3.22;2.78;;;13.30;99.90;;;;;;5054581;28;20231;-65
2023/09/23 05:34:55;;;;;;;5.72;2.85;;;13.20;99.90;;;;;;5031103;28;20323;-65
2023/09/23 05:37:22;;;;;;;2.15;1.95;;;13.30;99.90;;;;;;5054761;28;20200;-65
2023/09/23 05:39:50;;;;;;;3.20;2.38;;;13.30;99.90;;;;;;5039783;28;20216;-65
2023/09/23 05:42:23;;;;;;;3.78;2.60;;;13.20;99.90;;;;;;5052174;28;20192;-65
2023/09/23 05:44:49;;;;;;;2.75;2.33;;;13.30;99.90;;;;;;5021473;28;20827;-66
2023/09/23 05:47:16;;;;;;;4.88;2.42;;;13.30;99.90;;;;;;5058122;28;20204;-65
2023/09/23 05:49:43;;;;;;;2.75;2.40;;;13.20;99.90;;;;;;5046424;28;20201;-65
2023/09/23 05:52:14;;;;;;;2.65;2.20;;;13.30;99.90;;;;;;5047839;28;20330;-65
2023/09/23 05:54:42;;;;;;;4.10;2.30;;;13.30;99.90;;;;;;5038549;28;20564;-65
2023/09/23 05:57:10;;;;;;;3.55;2.30;;;13.20;99.90;;;;;;5054882;28;20199;-66
2023/09/23 05:59:37;;;;;;;4.03;2.20;;;13.30;99.90;;;;;;5022926;28;20901;-65
2023/09/23 06:02:08;;;;;;;2.13;2.00;;;13.40;99.90;;;;;;5050141;28;20200;-65
2023/09/23 06:04:35;;;;;;;2.35;2.08;;;13.40;99.90;;;;;;5043629;28;20272;-65
2023/09/23 06:07:02;;;;;;;3.17;2.30;;;13.40;99.90;;;;;;5044542;28;20343;-65
2023/09/23 06:09:29;;;;;;;2.22;1.90;;;13.40;99.90;;;;;;5063462;28;20202;-66
2023/09/23 06:11:55;;;;;;;2.65;2.17;;;13.40;99.90;;;;;;5044375;28;20606;-65
2023/09/23 06:14:25;;;;;;;3.47;2.33;;;13.40;99.90;;;;;;5029241;28;20305;-65
2023/09/23 06:16:51;;;;;;;2.55;2.15;;;13.40;99.90;;;;;;5057114;28;20546;-65
2023/09/23 06:19:18;;;;;;;3.58;2.80;;;13.50;99.90;;;;;;5046502;28;20204;-65
2023/09/23 06:21:45;;;;;;;2.97;2.63;;;13.50;99.90;;;;;;5048984;28;20201;-65
2023/09/23 06:24:12;;;;;;;3.17;2.47;;;13.50;99.90;;;;;;5058845;28;20197;-65
2023/09/23 06:26:39;;;;;;;2.95;2.65;;;13.60;99.90;;;;;;5043923;28;20200;-65
2023/09/23 06:29:05;;;;;;;2.90;2.60;;;13.60;99.90;;;;;;5058505;28;20197;-65
2023/09/23 06:31:34;;;;;;;3.10;2.80;;;13.60;99.90;;;;;;5025306;28;20611;-65
2023/09/23 06:34:01;;;;;;;7.18;3.15;;;13.50;99.90;;;;;;5052675;28;20472;-65
2023/09/23 06:36:27;;;;;;;3.70;3.35;;;13.50;99.90;;;;;;5041416;28;20235;-65
2023/09/23 06:38:54;;;;;;;5.28;3.10;;;9.80;99.90;;;;;;5048108;28;20196;-65
2023/09/23 06:41:21;;;;;;;3.88;3.45;;;13.50;99.90;;;;;;5036853;28;20203;-65
2023/09/23 06:43:48;;;;;;;3.30;2.97;;;13.50;99.90;;;;;;5048518;28;20212;-65
2023/09/23 06:46:14;;;;;;;5.18;3.90;;;13.30;99.90;;;;;;5031939;28;20676;-65
2023/09/23 06:48:43;;;;;;;5.78;3.88;;;13.50;99.90;;;;;;5044310;28;20219;-65
2023/09/23 06:51:10;;;;;;;5.82;3.60;;;13.50;99.90;;;;;;5047062;28;20220;-65
2023/09/23 06:53:37;;;;;;;4.22;3.83;;;13.40;99.90;;;;;;5046109;28;20902;-65
2023/09/23 06:56:04;;;;;;;5.25;4.30;;;13.40;99.90;;;;;;5062111;28;20520;-65
2023/09/23 06:58:31;;;;;;;4.40;4.00;;;13.40;99.90;;;;;;5045274;28;20207;-65
2023/09/23 07:00:58;;;;;;;6.18;4.65;;;13.40;99.90;;;;;;5063461;28;20232;-65
2023/09/23 07:03:25;;;;;;;6.90;4.35;;;13.30;99.90;;;;;;5011490;28;20212;-65
2023/09/23 07:05:53;;;;;;;6.50;4.80;;;13.40;99.90;;;;;;5052380;28;20204;-65
2023/09/23 07:08:20;;;;;;;6.60;4.93;;;13.30;99.90;;;;;;5051132;28;20832;-65
2023/09/23 07:10:47;;;;;;;8.77;5.57;;;13.30;99.90;;;;;;5061968;28;20399;-65
2023/09/23 07:13:14;;;;;;;5.93;4.90;;;13.40;99.90;;;;;;5025774;28;20422;-65
2023/09/23 07:15:41;;;;;;;6.20;4.47;;;13.30;99.90;;;;;;5063085;28;20208;-65
2023/09/23 07:18:09;;;;;;;6.35;4.90;;;13.40;99.90;;;;;;5023493;28;20314;-65
2023/09/23 07:20:36;;;;;;;6.57;4.72;;;13.40;99.90;;;;;;5056060;28;20216;-65
2023/09/23 07:23:04;;;;;;;6.70;4.85;;;13.40;99.90;;;;;;5040844;28;20204;-65
2023/09/23 07:25:38;;;;;;;5.75;4.72;;;13.50;99.90;;;;;;5060284;28;20214;-65
2023/09/23 07:28:06;;;;;;;5.88;4.47;;;13.50;99.90;;;;;;5044799;28;20221;-65
2023/09/23 07:30:34;;;;;;;9.23;5.32;;;13.50;99.90;;;;;;5062619;28;20196;-65
2023/09/23 07:33:01;;;;;;;5.45;4.55;;;13.40;99.90;;;;;;5024712;28;20216;-65
2023/09/23 07:35:30;;;;;;;6.55;5.05;;;13.50;99.90;;;;;;5058195;28;20975;-65
2023/09/23 07:37:59;;;;;;;5.97;4.63;;;13.60;99.90;;;;;;5026068;28;20234;-66
2023/09/23 07:40:27;;;;;;;8.38;4.97;;;13.60;99.90;;;;;;5050036;28;20207;-65
2023/09/23 07:42:54;;;;;;;6.07;4.95;;;13.60;99.90;;;;;;5050136;28;20224;-65
2023/09/23 07:45:21;;;;;;;6.18;5.22;;;13.60;99.90;;;;;;5028478;28;20776;-65
2023/09/23 07:47:49;;;;;;;8.15;5.05;;;13.60;99.90;;;;;;5023591;28;20243;-65
2023/09/23 07:50:16;;;;;;;9.88;5.63;;;13.60;99.90;;;;;;5028446;28;20294;-65
2023/09/23 07:52:43;;;;;;;14.00;6.68;;;13.70;99.90;;;;;;5035180;28;20224;-65
2023/09/23 07:55:10;;;;;;;9.93;6.63;;;13.70;99.90;;;;;;5035824;28;20428;-65
2023/09/23 07:57:38;;;;;;;8.45;6.50;;;13.70;99.90;;;;;;5055110;28;20226;-65
2023/09/23 08:00:08;;;;;;;15.00;6.63;;;13.80;99.90;;;;;;5030289;28;20422;-65
2023/09/23 08:02:36;;;;;;;8.68;6.65;;;13.80;99.90;;;;;;5022484;28;20220;-65
2023/09/23 08:05:03;;;;;;;8.40;6.55;;;13.80;99.90;;;;;;5006260;28;20605;-65
2023/09/23 08:07:30;;;;;;;10.32;7.00;;;13.80;99.90;;;;;;5037505;28;20620;-65
2023/09/23 08:09:57;;;;;;;8.77;6.88;;;13.90;99.90;;;;;;5014243;28;21168;-65
2023/09/23 08:12:24;;;;;;;9.45;8.25;;;13.90;99.90;;;;;;5057399;28;20203;-65
2023/09/23 08:14:53;;;;;;;9.38;8.02;;;14.00;99.90;;;;;;5006825;28;20203;-65
2023/09/23 08:17:20;;;;;;;9.60;7.82;;;14.00;99.90;;;;;;5045775;28;20297;-65
2023/09/23 08:19:46;;;;;;;10.45;8.25;;;14.70;99.90;;;;;;5005589;28;20227;-65
2023/09/23 08:22:13;;;;;;;9.90;8.40;;;14.00;99.90;;;;;;5035856;28;20238;-65
2023/09/23 08:24:42;;;;;;;12.02;8.75;;;14.10;99.90;;;;;;5020869;28;20231;-65
2023/09/23 08:27:09;;;;;;;12.75;9.55;;;14.10;99.90;;;;;;5013887;28;20578;-65
2023/09/23 08:29:36;;;;;;;11.38;9.85;;;14.10;99.90;;;;;;5035110;28;20212;-65
2023/09/23 08:32:05;;;;;;;11.20;9.82;;;14.10;99.90;;;;;;5031877;28;20284;-65
2023/09/23 08:34:32;;;;;;;16.55;11.18;;;14.80;99.90;;;;;;5031101;28;20331;-65
2023/09/23 08:37:00;;;;;;;14.38;11.93;;;14.10;99.90;;;;;;5001636;28;20588;-65
2023/09/23 08:39:27;;;;;;;14.98;11.50;;;14.00;99.90;;;;;;5018424;28;20216;-65
2023/09/23 08:41:54;;;;;;;15.57;11.93;;;14.10;99.90;;;;;;5035848;28;20562;-65
2023/09/23 08:44:22;;;;;;;13.93;11.32;;;14.20;99.90;;;;;;5035306;28;20217;-65
2023/09/23 08:46:50;;;;;;;12.50;10.55;;;14.20;99.90;;;;;;5017282;28;20327;-65
2023/09/23 08:49:21;;;;;;;13.52;11.77;;;14.20;99.90;;;;;;5038405;28;20209;-65
2023/09/23 08:51:50;;;;;;;11.57;10.38;;;14.30;99.90;;;;;;5017146;28;20225;-65
2023/09/23 08:54:18;;;;;;;16.02;10.73;;;14.10;99.90;;;;;;5026666;28;20232;-65
2023/09/23 08:56:45;;;;;;;11.88;10.55;;;14.30;99.90;;;;;;5033922;28;20216;-65
2023/09/23 08:59:14;;;;;;;11.93;10.68;;;14.30;99.90;;;;;;5040814;28;20203;-65
2023/09/23 09:01:44;;;;;;;11.57;9.75;;;14.30;99.90;;;;;;5019721;28;20207;-65
2023/09/23 09:04:14;;;;;;;13.52;9.88;;;14.40;99.90;;;;;;5042250;28;20223;-65
2023/09/23 09:06:50;;;;;;;14.05;9.57;;;14.50;99.90;;;;;;5008938;28;20224;-65
2023/09/23 09:09:17;;;;;;;13.63;9.18;;;;;;;;;;5033940;28;20243;-65
2023/09/23 09:11:46;;;;;;;11.82;8.68;;;14.60;99.90;;;;;;5030874;28;20266;-65
2023/09/23 09:14:14;;;;;;;11.57;8.50;;;14.70;99.90;;;;;;5020681;28;20671;-65
2023/09/23 09:16:41;;;;;;;11.55;8.57;;;14.40;99.90;;;;;;5024182;28;20235;-65
2023/09/23 09:19:08;;;;;;;11.93;8.40;;;14.50;99.90;;;;;;5047339;28;20223;-65
2023/09/23 09:21:35;;;;;;;11.73;7.93;;;;;;;;;;5000335;28;21713;-65
2023/09/23 09:24:04;;;;;;;15.50;9.35;;;14.50;99.90;;;;;;5023608;28;20223;-65
2023/09/23 09:26:31;;;;;;;9.65;7.85;;;14.50;99.90;;;;;;5001060;28;20624;-65
2023/09/23 09:28:58;;;;;;;10.43;7.97;;;14.60;99.90;;;;;;5029814;28;20216;-65
2023/09/23 09:31:32;;;;;;;12.43;8.05;;;14.70;99.90;;;;;;5036477;28;20212;-65
2023/09/23 09:34:03;;;;;;;9.40;7.57;;;14.70;99.90;;;;;;5034321;28;20230;-65
2023/09/23 09:36:34;;;;;;;12.32;7.65;;;14.70;99.90;;;;;;5030169;28;20948;-65
2023/09/23 09:39:02;;;;;;;9.55;7.65;;;14.80;99.90;;;;;;5012026;28;20304;-65
2023/09/23 09:41:35;;;;;;;8.85;7.95;;;14.80;99.90;;;;;;5037523;28;20791;-65
2023/09/23 09:44:04;;;;;;;9.65;8.20;;;14.80;99.90;;;;;;5012321;28;20852;-65
2023/09/23 09:46:32;;;;;;;9.32;7.97;;;13.50;99.90;;;;;;5059031;28;20204;-65
2023/09/23 09:49:00;;;;;;;8.48;6.88;;;14.90;99.90;;;;;;5024787;28;20389;-65
2023/09/23 09:51:28;;;;;;;10.50;7.45;;;14.90;99.90;;;;;;5050288;28;20219;-65
2023/09/23 09:53:55;;;;;;;10.27;7.82;;;14.90;99.90;;;;;;5004555;28;20217;-65
2023/09/23 09:56:24;;;;;;;9.70;7.13;;;14.90;99.90;;;;;;5035551;28;20230;-65
2023/09/23 09:58:56;;;;;;;10.00;6.82;;;14.80;99.90;;;;;;5030638;28;21135;-65
2023/09/23 10:01:23;;;;;;;9.65;7.13;;;15.00;99.90;;;;;;5053013;28;20875;-65
2023/09/23 10:03:50;;;;;;;11.73;8.25;;;15.00;99.90;;;;;;5016834;28;20230;-65
2023/09/23 10:06:19;;;;;;;10.07;8.10;;;15.00;99.90;;;;;;5046829;28;20270;-65
2023/09/23 10:08:48;;;;;;;10.90;8.45;;;15.20;99.90;;;;;;5031562;28;20217;-65
2023/09/23 10:11:15;;;;;;;11.77;7.82;;;15.00;99.90;;;;;;5021871;28;20259;-65
2023/09/23 10:13:42;;;;;;;8.43;7.53;;;;;;;;;;5032982;28;20235;-65
2023/09/23 10:16:17;;;;;;;11.98;7.95;;;15.20;99.90;;;;;;5016497;28;20213;-65
2023/09/23 10:18:44;;;;;;;10.90;7.65;;;15.40;99.90;;;;;;5034028;28;20223;-65
2023/09/23 10:21:23;;;;;;;12.18;8.52;;;15.20;99.90;;;;;;5036599;28;20657;-65
2023/09/23 10:23:56;;;;;;;11.15;7.93;;;15.20;99.90;;;;;;5048838;28;20377;-65
2023/09/23 10:26:23;;;;;;;10.98;7.90;;;15.50;99.90;;;;;;5010704;28;20300;-65
2023/09/23 10:28:58;;;;;;;8.50;7.25;;;15.20;99.90;;;;;;5040333;28;20318;-65
2023/09/23 10:31:32;;;;;;;10.20;7.30;;;15.20;99.90;;;;;;5038378;28;20306;-65
2023/09/23 10:34:05;;;;;;;10.90;7.47;;;15.20;99.90;;;;;;5039958;28;20504;-65
2023/09/23 10:36:32;;;;;;;12.80;7.15;;;15.30;99.90;;;;;;5039656;28;20224;-65
2023/09/23 10:38:59;;;;;;;11.45;7.55;;;14.00;99.90;;;;;;5031671;28;20279;-66
2023/09/23 10:41:33;;;;;;;9.68;7.70;;;15.40;99.90;;;;;;5024263;28;20223;-65
2023/09/23 10:44:00;;;;;;;9.23;7.40;;;15.40;99.90;;;;;;5046447;28;20203;-65
2023/09/23 10:46:26;;;;;;;11.40;7.45;;;15.60;99.90;;;;;;5025696;28;20191;-66
2023/09/23 10:48:54;;;;;;;10.52;8.55;;;15.50;99.90;;;;;;5036545;28;20196;-65
2023/09/23 10:51:22;;;;;;;9.77;7.45;;;15.90;99.90;;;;;;5034382;28;20289;-65
2023/09/23 10:53:50;;;;;;;10.02;8.40;;;15.60;99.90;;;;;;5049363;28;20215;-65
2023/09/23 10:56:20;;;;;;;10.82;7.25;;;16.10;99.90;;;;;;5018348;28;20287;-66
2023/09/23 10:58:47;;;;;;;9.38;7.20;;;15.80;99.90;;;;;;5052150;28;20589;-65
2023/09/23 11:01:14;;;;;;;10.82;8.15;;;15.90;99.90;;;;;;5006704;28;20228;-65
2023/09/23 11:03:41;;;;;;;8.85;6.78;;;15.90;99.90;;;;;;5036410;28;20200;-65
2023/09/23 11:06:09;;;;;;;10.48;7.10;;;15.80;99.90;;;;;;5040907;28;20227;-65
2023/09/23 11:08:38;;;;;;;9.85;7.28;;;16.00;99.90;;;;;;5023809;28;20262;-66
2023/09/23 11:11:09;;;;;;;8.00;6.65;;;16.00;99.90;;;;;;5032407;28;20224;-65
2023/09/23 11:13:36;;;;;;;10.50;6.30;;;16.10;99.90;;;;;;5028985;28;21181;-65
2023/09/23 11:16:10;;;;;;;8.88;7.35;;;16.10;99.90;;;;;;5042789;28;20207;-65
2023/09/23 11:18:38;;;;;;;9.73;6.53;;;16.10;99.90;;;;;;5025627;28;23489;-65
2023/09/23 11:21:05;;;;;;;7.13;6.13;;;16.10;99.90;;;;;;5041063;28;20270;-65
2023/09/23 11:23:34;;;;;;;8.20;5.85;;;16.10;99.90;;;;;;5012289;28;21260;-65
2023/09/23 11:26:01;;;;;;;8.80;6.80;;;17.00;99.90;;;;;;5031786;28;20231;-65
2023/09/23 11:28:28;;;;;;;9.95;6.10;;;15.90;99.90;;;;;;5017541;28;20238;-65
2023/09/23 11:30:57;;;;;;;8.63;6.32;;;15.90;99.90;;;;;;5036135;28;20201;-66
2023/09/23 11:33:24;;;;;;;7.10;5.93;;;16.00;99.90;;;;;;5029722;28;20205;-65
2023/09/23 11:35:51;;;;;;;9.38;5.75;;;16.00;99.90;;;;;;5035721;28;20220;-65
2023/09/23 11:38:20;;;;;;;12.70;6.15;;;;;;;;;;5028598;28;20317;-65
2023/09/23 11:40:48;;;;;;;14.40;6.22;;;15.90;99.90;;;;;;5054256;28;20319;-65
2023/09/23 11:43:15;;;;;;;12.80;6.15;;;15.90;99.90;;;;;;5019731;28;20228;-65
2023/09/23 11:45:42;;;;;;;5.97;5.38;;;16.00;99.90;;;;;;5052246;28;20196;-65
2023/09/23 11:48:10;;;;;;;7.75;5.30;;;16.00;99.90;;;;;;5046425;28;20203;-65
2023/09/23 11:50:37;;;;;;;7.20;5.70;;;16.10;99.90;;;;;;5020399;28;20201;-66
2023/09/23 11:53:04;;;;;;;6.00;5.18;;;16.10;99.90;;;;;;5032331;28;20223;-66
2023/09/23 11:55:32;;;;;;;8.57;5.00;;;16.20;99.90;;;;;;5035295;28;20781;-65
2023/09/23 11:58:01;;;;;;;7.53;5.03;;;16.30;99.90;;;;;;5028727;28;20719;-66
2023/09/23 12:00:28;;;;;;;7.55;5.15;;;16.30;99.90;;;;;;5026076;28;20403;-66
2023/09/23 12:02:55;;;;;;;6.47;4.97;;;16.30;99.90;;;;;;5027278;28;20727;-65
2023/09/23 12:05:28;;;;;;;6.50;4.35;;;16.10;99.90;;;;;;5018203;28;21636;-65
2023/09/23 12:07:55;;;;;;;10.57;5.30;;;16.20;99.90;;;;;;5058034;28;20203;-65
2023/09/23 12:10:22;;;;;;;7.20;4.65;;;16.30;99.90;;;;;;5029480;28;22688;-65
2023/09/23 12:12:49;;;;;;;6.60;4.72;;;16.20;99.90;;;;;;5056655;28;20196;-65
2023/09/23 12:15:17;;;;;;;4.75;4.30;;;16.40;99.90;;;;;;5005918;28;20228;-65
2023/09/23 12:17:44;;;;;;;6.10;3.97;;;16.40;99.90;;;;;;5045085;28;20220;-65
2023/09/23 12:20:11;;;;;;;6.50;4.60;;;16.40;99.90;;;;;;5027906;28;21324;-65
2023/09/23 12:22:39;;;;;;;7.75;4.53;;;16.40;99.90;;;;;;5035287;28;20595;-65
2023/09/23 12:25:07;;;;;;;7.70;4.28;;;16.50;99.90;;;;;;5031552;28;20239;-66
2023/09/23 12:27:34;;;;;;;8.65;4.07;;;16.50;99.90;;;;;;5051231;28;20220;-65
2023/09/23 12:30:00;;;;;;;5.57;4.30;;;16.60;99.90;;;;;;5000040;28;20259;-66
2023/09/23 12:32:30;;;;;;;8.57;4.38;;;16.50;99.90;;;;;;5039126;28;20220;-65
2023/09/23 12:34:57;;;;;;;6.55;3.83;;;16.60;99.90;;;;;;5030358;28;20233;-65
2023/09/23 12:37:26;;;;;;;4.80;3.38;;;16.60;99.90;;;;;;5031485;28;20957;-65
2023/09/23 12:39:53;;;;;;;4.65;3.53;;;16.60;99.90;;;;;;5057348;28;20213;-65
2023/09/23 12:42:20;;;;;;;4.00;3.60;;;16.60;99.90;;;;;;5021660;28;20204;-65
2023/09/23 12:44:47;;;;;;;6.53;3.70;;;16.60;99.90;;;;;;5020781;28;20224;-66
2023/09/23 12:47:14;;;;;;;6.45;3.53;;;16.70;99.90;;;;;;5036498;28;20200;-66
2023/09/23 12:49:43;;;;;;;6.13;3.97;;;16.70;99.90;;;;;;5026958;28;20216;-65